createdAt,value
2024-04-17T00:00:07.115Z,98305.09
2024-04-17T00:02:39.074Z,98305.16
2024-04-17T00:05:12.546Z,98304.85
2024-04-17T00:07:44.451Z,98304.56
2024-04-17T00:10:16.371Z,98302.38
2024-04-17T00:12:48.023Z,98296.42
2024-04-17T00:15:19.717Z,98293.21
2024-04-17T00:17:51.715Z,98285.89
2024-04-17T00:20:23.601Z,98283.70
2024-04-17T00:22:55.398Z,98280.14
2024-04-17T00:25:27.040Z,98280.17
2024-04-17T00:27:58.469Z,98281.73
2024-04-17T00:30:30.093Z,98286.06
2024-04-17T00:33:02.024Z,98285.91
2024-04-17T00:35:33.783Z,98280.09
2024-04-17T00:38:05.512Z,98279.77
2024-04-17T00:40:37.419Z,98274.67
2024-04-17T00:43:09.373Z,98271.10
2024-04-17T00:45:43.760Z,98266.70
2024-04-17T00:48:16.804Z,98265.52
2024-04-17T00:50:52.124Z,98261.79
2024-04-17T00:53:29.683Z,98260.63
2024-04-17T00:56:03.303Z,98259.98
2024-04-17T00:58:35.428Z,98260.84
2024-04-17T01:01:07.371Z,98261.55
2024-04-17T01:03:39.243Z,98263.08
2024-04-17T01:06:12.040Z,98261.54
2024-04-17T01:08:44.727Z,98258.77
2024-04-17T01:11:17.304Z,98261.84
2024-04-17T01:13:50.141Z,98263.36
2024-04-17T01:16:22.995Z,98266.39
2024-04-17T01:18:56.600Z,98264.83
2024-04-17T01:21:28.940Z,98269.58
2024-04-17T01:24:02.267Z,98270.74
2024-04-17T01:26:35.522Z,98270.88
2024-04-17T01:29:07.812Z,98272.77
2024-04-17T01:31:40.470Z,98274.98
2024-04-17T01:34:14.404Z,98272.58
2024-04-17T01:36:46.385Z,98272.06
2024-04-17T01:39:17.940Z,98274.80
2024-04-17T01:41:49.530Z,98273.58
2024-04-17T01:44:27.514Z,98273.89
2024-04-17T01:47:02.414Z,98274.90
2024-04-17T01:49:34.287Z,98271.25
2024-04-17T01:52:06.435Z,98271.23
2024-04-17T01:54:38.211Z,98270.85
2024-04-17T01:57:09.940Z,98274.94
2024-04-17T01:59:41.521Z,98273.55
2024-04-17T02:02:13.191Z,98270.63
2024-04-17T02:04:45.126Z,98272.84
2024-04-17T02:07:16.928Z,98276.08
2024-04-17T02:09:49.717Z,98278.98
2024-04-17T02:12:21.359Z,98279.88
2024-04-17T02:14:52.982Z,98279.20
2024-04-17T02:17:24.646Z,98281.73
2024-04-17T02:19:56.553Z,98281.70
2024-04-17T02:22:28.453Z,98279.12
2024-04-17T02:25:00.282Z,98278.37
2024-04-17T02:27:32.001Z,98273.36
2024-04-17T02:30:03.525Z,98274.37
2024-04-17T02:32:35.186Z,98270.59
2024-04-17T02:35:07.717Z,98269.70
2024-04-17T02:37:39.288Z,98272.88
2024-04-17T02:40:13.344Z,98271.20
2024-04-17T02:42:45.094Z,98271.23
2024-04-17T02:45:16.855Z,98271.36
2024-04-17T02:47:48.562Z,98273.00
2024-04-17T02:50:20.621Z,98268.36
2024-04-17T02:52:52.293Z,98271.59
2024-04-17T02:55:24.064Z,98270.16
2024-04-17T02:57:55.845Z,98268.61
2024-04-17T03:00:28.903Z,98269.27
2024-04-17T03:03:05.329Z,98268.05
2024-04-17T03:05:38.271Z,98268.36
2024-04-17T03:08:10.234Z,98269.85
2024-04-17T03:10:42.160Z,98274.75
2024-04-17T03:13:13.727Z,98277.79
2024-04-17T03:15:47.173Z,98282.02
2024-04-17T03:18:19.144Z,98285.05
2024-04-17T03:20:50.733Z,98286.36
2024-04-17T03:23:22.382Z,98291.65
2024-04-17T03:25:58.200Z,98291.98
2024-04-17T03:28:31.309Z,98298.29
2024-04-17T03:31:03.780Z,98300.50
2024-04-17T03:33:35.455Z,98300.89
2024-04-17T03:36:08.249Z,98301.23
2024-04-17T03:38:39.813Z,98297.16
2024-04-17T03:41:11.595Z,98303.98
2024-04-17T03:43:43.615Z,98306.36
2024-04-17T03:46:15.207Z,98310.61
2024-04-17T03:48:46.839Z,98311.82
2024-04-17T03:51:18.461Z,98317.32
2024-04-17T03:53:51.770Z,98325.52
2024-04-17T03:56:23.402Z,98326.35
2024-04-17T03:58:55.210Z,98337.19
2024-04-17T04:01:27.422Z,98342.61
2024-04-17T04:03:59.134Z,98352.42
2024-04-17T04:06:30.730Z,98357.64
2024-04-17T04:09:02.236Z,98359.08
2024-04-17T04:11:33.916Z,98368.77
2024-04-17T04:14:06.076Z,98378.80
2024-04-17T04:16:37.624Z,98386.27
2024-04-17T04:19:09.135Z,98384.88
2024-04-17T04:21:40.754Z,98390.94
2024-04-17T04:24:12.493Z,98391.40
2024-04-17T04:26:44.070Z,98393.41
2024-04-17T04:29:16.293Z,98392.75
2024-04-17T04:31:48.016Z,98396.59
2024-04-17T04:34:19.687Z,98401.61
2024-04-17T04:36:51.181Z,98405.48
2024-04-17T04:39:22.655Z,98411.75
2024-04-17T04:41:55.206Z,98411.86
2024-04-17T04:44:26.743Z,98416.60
2024-04-17T04:46:59.298Z,98415.91
2024-04-17T04:49:31.080Z,98418.34
2024-04-17T04:52:02.848Z,98421.41
2024-04-17T04:54:34.532Z,98418.36
2024-04-17T04:57:06.598Z,98420.33
2024-04-17T04:59:38.598Z,98419.58
2024-04-17T05:02:10.562Z,98424.67
2024-04-17T05:04:43.208Z,98425.68
2024-04-17T05:07:14.810Z,98424.27
2024-04-17T05:09:46.643Z,98426.02
2024-04-17T05:12:18.351Z,98426.42
2024-04-17T05:14:50.435Z,98422.59
2024-04-17T05:17:22.199Z,98427.10
2024-04-17T05:19:54.037Z,98427.34
2024-04-17T05:22:25.696Z,98429.80
2024-04-17T05:24:57.385Z,98434.23
2024-04-17T05:27:29.048Z,98436.23
2024-04-17T05:30:00.980Z,98445.46
2024-04-17T05:32:32.792Z,98444.30
2024-04-17T05:35:04.966Z,98448.42
2024-04-17T05:37:36.456Z,98449.63
2024-04-17T05:40:09.662Z,98453.74
2024-04-17T05:42:41.175Z,98458.85
2024-04-17T05:45:13.118Z,98461.91
2024-04-17T05:47:44.978Z,98461.31
2024-04-17T05:50:17.046Z,98472.42
2024-04-17T05:52:48.869Z,98475.61
2024-04-17T05:55:21.019Z,98478.83
2024-04-17T05:57:52.516Z,98482.73
2024-04-17T06:00:24.451Z,98478.94
2024-04-17T06:02:57.981Z,98474.81
2024-04-17T06:05:30.840Z,98469.11
2024-04-17T06:08:02.586Z,98471.63
2024-04-17T06:10:34.713Z,98468.03
2024-04-17T06:13:07.245Z,98467.36
2024-04-17T06:15:38.831Z,98467.71
2024-04-17T06:18:10.698Z,98467.96
2024-04-17T06:20:44.160Z,98469.54
2024-04-17T06:23:15.758Z,98470.16
2024-04-17T06:25:49.120Z,98468.55
2024-04-17T06:28:21.830Z,98474.80
2024-04-17T06:30:53.570Z,98473.94
2024-04-17T06:33:25.478Z,98476.02
2024-04-17T06:35:57.590Z,98477.55
2024-04-17T06:38:29.298Z,98476.38
2024-04-17T06:41:01.749Z,98475.20
2024-04-17T06:43:33.506Z,98477.91
2024-04-17T06:46:05.297Z,98477.95
2024-04-17T06:48:36.992Z,98480.09
2024-04-17T06:51:08.838Z,98479.87
2024-04-17T06:53:42.718Z,98482.29
2024-04-17T06:56:15.369Z,98483.85
2024-04-17T06:58:47.347Z,98484.27
2024-04-17T07:01:19.572Z,98490.00
2024-04-17T07:03:51.715Z,98496.55
2024-04-17T07:06:23.708Z,98498.66
2024-04-17T07:08:55.839Z,98500.09
2024-04-17T07:11:28.431Z,98497.19
2024-04-17T07:14:00.100Z,98502.15
2024-04-17T07:16:32.126Z,98504.88
2024-04-17T07:19:04.201Z,98507.02
2024-04-17T07:21:35.986Z,98508.55
2024-04-17T07:24:08.533Z,98508.69
2024-04-17T07:26:40.610Z,98508.87
2024-04-17T07:29:12.533Z,98515.91
2024-04-17T07:31:44.482Z,98515.52
2024-04-17T07:34:16.118Z,98517.98
2024-04-17T07:36:49.536Z,98518.52
2024-04-17T07:39:21.203Z,98521.02
2024-04-17T07:41:53.008Z,98520.11
2024-04-17T07:44:24.917Z,98521.11
2024-04-17T07:46:56.713Z,98525.41
2024-04-17T07:49:28.654Z,98527.39
2024-04-17T07:52:00.255Z,98523.11
2024-04-17T07:54:31.983Z,98526.64
2024-04-17T07:57:03.603Z,98532.65
2024-04-17T07:59:35.921Z,98533.83
2024-04-17T08:02:08.579Z,98539.16
2024-04-17T08:04:40.116Z,98536.32
2024-04-17T08:07:11.830Z,98541.35
2024-04-17T08:09:43.863Z,98534.64
2024-04-17T08:12:15.819Z,98532.08
2024-04-17T08:14:47.631Z,98534.41
2024-04-17T08:17:19.493Z,98542.23
2024-04-17T08:19:51.553Z,98543.66
2024-04-17T08:22:23.559Z,98547.30
2024-04-17T08:24:55.227Z,98542.55
2024-04-17T08:27:26.800Z,98544.23
2024-04-17T08:29:59.619Z,98547.51
2024-04-17T08:32:32.294Z,98549.20
2024-04-17T08:35:05.105Z,98555.66
2024-04-17T08:37:37.949Z,98560.42
2024-04-17T08:40:12.315Z,98558.05
2024-04-17T08:42:50.106Z,98559.06
2024-04-17T08:45:43.255Z,98563.27
2024-04-17T08:48:20.953Z,98562.98
2024-04-17T08:50:53.442Z,98562.65
2024-04-17T08:53:27.395Z,98564.21
2024-04-17T08:55:59.493Z,98564.35
2024-04-17T08:58:32.125Z,98567.83
2024-04-17T09:01:05.094Z,98563.23
2024-04-17T09:03:38.246Z,98566.90
2024-04-17T09:06:12.610Z,98570.64
2024-04-17T09:08:45.097Z,98573.55
2024-04-17T09:11:17.937Z,98577.45
2024-04-17T09:13:49.668Z,98583.27
2024-04-17T09:16:21.364Z,98583.77
2024-04-17T09:18:53.404Z,98586.13
2024-04-17T09:21:25.253Z,98589.05
2024-04-17T09:23:57.071Z,98590.86
2024-04-17T09:26:28.722Z,98591.63
2024-04-17T09:29:00.687Z,98593.44
2024-04-17T09:31:32.923Z,98595.59
2024-04-17T09:34:07.011Z,98594.23
2024-04-17T09:36:38.756Z,98597.45
2024-04-17T09:39:11.682Z,98602.80
2024-04-17T09:41:46.429Z,98597.69
2024-04-17T09:44:23.180Z,98596.93
2024-04-17T09:46:59.605Z,98597.52
2024-04-17T09:49:32.197Z,98599.05
2024-04-17T09:52:07.036Z,98593.41
2024-04-17T09:54:39.590Z,98594.66
2024-04-17T09:57:13.767Z,98597.32
2024-04-17T09:59:48.380Z,98601.88
2024-04-17T10:02:21.632Z,98602.04
2024-04-17T10:04:55.485Z,98602.65
2024-04-17T10:07:28.890Z,98603.84
2024-04-17T10:10:01.662Z,98605.68
2024-04-17T10:12:35.339Z,98605.39
2024-04-17T10:15:09.798Z,98608.36
2024-04-17T10:17:42.762Z,98611.21
2024-04-17T10:20:28.925Z,98612.67
2024-04-17T10:23:08.327Z,98610.73
2024-04-17T10:25:52.134Z,98612.95
2024-04-17T10:28:24.434Z,98613.08
2024-04-17T10:30:57.675Z,98615.78
2024-04-17T10:33:35.488Z,98613.67
2024-04-17T10:36:09.120Z,98615.17
2024-04-17T10:38:44.627Z,98615.55
2024-04-17T10:41:17.667Z,98616.98
2024-04-17T10:43:49.401Z,98619.27
2024-04-17T10:46:23.896Z,98617.80
2024-04-17T10:48:57.774Z,98619.64
2024-04-17T10:51:30.437Z,98622.02
2024-04-17T10:54:03.941Z,98625.52
2024-04-17T10:56:35.757Z,98628.50
2024-04-17T10:59:07.725Z,98629.48
2024-04-17T11:01:39.790Z,98631.81
2024-04-17T11:04:13.744Z,98635.30
2024-04-17T11:06:45.623Z,98638.95
2024-04-17T11:09:17.656Z,98640.48
2024-04-17T11:11:51.174Z,98642.52
2024-04-17T11:14:23.098Z,98642.69
2024-04-17T11:16:54.860Z,98644.44
2024-04-17T11:19:27.301Z,98645.98
2024-04-17T11:22:01.178Z,98644.61
2024-04-17T11:24:33.675Z,98648.84
2024-04-17T11:27:11.102Z,98648.80
2024-04-17T11:29:48.650Z,98649.48
2024-04-17T11:32:21.621Z,98650.38
2024-04-17T11:34:53.459Z,98650.52
2024-04-17T11:37:28.933Z,98656.56
2024-04-17T11:40:02.440Z,98650.27
2024-04-17T11:42:34.184Z,98656.80
2024-04-17T11:45:07.825Z,98657.59
2024-04-17T11:47:39.872Z,98658.55
2024-04-17T11:50:13.322Z,98659.52
2024-04-17T11:52:45.111Z,98659.52
2024-04-17T11:55:19.428Z,98661.58
2024-04-17T11:57:51.317Z,98662.20
2024-04-17T12:00:23.029Z,98660.15
2024-04-17T12:02:54.970Z,98664.48
2024-04-17T12:05:27.871Z,98664.09
2024-04-17T12:08:00.506Z,98665.45
2024-04-17T12:10:32.408Z,98667.67
2024-04-17T12:13:04.919Z,98667.28
2024-04-17T12:15:36.616Z,98667.66
2024-04-17T12:18:09.096Z,98664.91
2024-04-17T12:20:40.865Z,98663.73
2024-04-17T12:23:19.311Z,98660.90
2024-04-17T12:26:09.346Z,98661.13
2024-04-17T12:28:41.097Z,98659.71
2024-04-17T12:31:13.039Z,98658.08
2024-04-17T12:33:45.554Z,98658.18
2024-04-17T12:36:17.417Z,98662.83
2024-04-17T12:38:50.111Z,98662.00
2024-04-17T12:41:21.703Z,98660.15
2024-04-17T12:43:53.509Z,98658.14
2024-04-17T12:46:25.394Z,98660.14
2024-04-17T12:48:57.171Z,98656.27
2024-04-17T12:51:29.158Z,98657.73
2024-04-17T12:54:00.941Z,98656.25
2024-04-17T12:56:33.382Z,98660.04
2024-04-17T12:59:06.951Z,98662.45
2024-04-17T13:01:38.464Z,98666.36
2024-04-17T13:04:12.074Z,98667.55
2024-04-17T13:06:44.668Z,98669.61
2024-04-17T13:09:17.191Z,98668.48
2024-04-17T13:11:49.209Z,98672.13
2024-04-17T13:14:20.932Z,98673.86
2024-04-17T13:16:52.770Z,98671.42
2024-04-17T13:19:24.502Z,98673.52
2024-04-17T13:21:56.206Z,98672.08
2024-04-17T13:24:27.910Z,98680.02
2024-04-17T13:27:01.588Z,98676.18
2024-04-17T13:29:34.307Z,98681.54
2024-04-17T13:32:06.698Z,98682.30
2024-04-17T13:34:38.524Z,98681.91
2024-04-17T13:37:10.579Z,98679.77
2024-04-17T13:39:42.102Z,98681.25
2024-04-17T13:42:14.045Z,98680.39
2024-04-17T13:44:46.973Z,98683.16
2024-04-17T13:47:18.777Z,98683.11
2024-04-17T13:49:51.345Z,98685.77
2024-04-17T13:52:28.000Z,98691.48
2024-04-17T13:54:59.767Z,98691.79
2024-04-17T13:57:31.374Z,98692.36
2024-04-17T14:00:03.215Z,98691.95
2024-04-17T14:02:43.609Z,98690.35
2024-04-17T14:05:15.194Z,98689.92
2024-04-17T14:07:46.821Z,98690.63
2024-04-17T14:10:19.045Z,98691.82
2024-04-17T14:12:50.469Z,98691.49
2024-04-17T14:15:22.457Z,98689.89
2024-04-17T14:17:54.475Z,98694.11
2024-04-17T14:20:26.620Z,98692.14
2024-04-17T14:22:58.295Z,98694.02
2024-04-17T14:25:30.018Z,98694.73
2024-04-17T14:28:03.673Z,98695.95
2024-04-17T14:30:35.625Z,98698.25
2024-04-17T14:33:07.957Z,98701.76
2024-04-17T14:35:41.059Z,98699.55
2024-04-17T14:38:12.768Z,98704.30
2024-04-17T14:40:44.506Z,98705.33
2024-04-17T14:43:16.156Z,98704.86
2024-04-17T14:45:55.482Z,98711.34
2024-04-17T14:48:28.313Z,98714.69
2024-04-17T14:51:07.791Z,98710.13
2024-04-17T14:53:39.952Z,98709.68
2024-04-17T14:56:12.081Z,98713.12
2024-04-17T14:58:43.747Z,98715.59
2024-04-17T15:01:17.165Z,98718.33
2024-04-17T15:03:49.112Z,98718.33
2024-04-17T15:06:21.486Z,98717.45
2024-04-17T15:08:53.243Z,98717.52
2024-04-17T15:11:25.046Z,98717.21
2024-04-17T15:13:56.967Z,98717.16
2024-04-17T15:16:29.831Z,98718.08
2024-04-17T15:19:01.782Z,98717.37
2024-04-17T15:21:33.670Z,98717.35
2024-04-17T15:24:05.781Z,98721.38
2024-04-17T15:26:37.508Z,98726.45
2024-04-17T15:29:09.344Z,98727.38
2024-04-17T15:31:41.319Z,98728.50
2024-04-17T15:34:13.104Z,98726.49
2024-04-17T15:36:46.142Z,98733.14
2024-04-17T15:39:23.986Z,98734.60
2024-04-17T15:41:55.882Z,98738.45
2024-04-17T15:44:27.626Z,98738.66
2024-04-17T15:47:00.696Z,98739.21
2024-04-17T15:49:34.113Z,98741.79
2024-04-17T15:52:06.055Z,98744.46
2024-04-17T15:54:37.746Z,98748.03
2024-04-17T15:57:09.559Z,98750.21
2024-04-17T15:59:43.073Z,98749.73
2024-04-17T16:02:14.828Z,98748.37
2024-04-17T16:04:50.455Z,98752.93
2024-04-17T16:07:25.341Z,98750.65
2024-04-17T16:09:57.745Z,98750.61
2024-04-17T16:12:31.286Z,98752.60
2024-04-17T16:15:07.995Z,98756.34
2024-04-17T16:17:41.329Z,98759.89
2024-04-17T16:20:14.532Z,98762.30
2024-04-17T16:22:48.135Z,98763.17
2024-04-17T16:25:21.000Z,98765.58
2024-04-17T16:27:53.197Z,98767.73
2024-04-17T16:30:27.576Z,98773.20
2024-04-17T16:32:59.257Z,98778.38
2024-04-17T16:35:31.556Z,98778.15
2024-04-17T16:38:06.621Z,98780.86
2024-04-17T16:40:38.889Z,98783.20
2024-04-17T16:43:11.842Z,98789.27
2024-04-17T16:45:44.631Z,98793.16
2024-04-17T16:48:16.760Z,98794.29
2024-04-17T16:50:57.347Z,98796.48
2024-04-17T16:53:28.971Z,98798.67
2024-04-17T16:56:02.319Z,98800.33
2024-04-17T16:58:40.061Z,98802.73
2024-04-17T17:01:43.953Z,98804.21
2024-04-17T17:04:18.556Z,98805.23
2024-04-17T17:06:56.221Z,98811.57
2024-04-17T17:09:30.222Z,98814.48
2024-04-17T17:12:05.105Z,98817.02
2024-04-17T17:14:37.879Z,98817.15
2024-04-17T17:17:13.926Z,98821.06
2024-04-17T17:19:49.739Z,98818.98
2024-04-17T17:22:22.291Z,98823.42
2024-04-17T17:24:56.805Z,98824.58
2024-04-17T17:27:29.172Z,98831.39
2024-04-17T17:30:00.951Z,98837.02
2024-04-17T17:32:33.299Z,98839.55
2024-04-17T17:35:07.245Z,98844.49
2024-04-17T17:37:39.087Z,98846.58
2024-04-17T17:40:14.107Z,98847.95
2024-04-17T17:42:49.840Z,98850.88
2024-04-17T17:45:22.108Z,98852.71
2024-04-17T17:47:53.717Z,98856.23
2024-04-17T17:50:25.728Z,98861.52
2024-04-17T17:52:58.234Z,98861.71
2024-04-17T17:55:29.750Z,98865.64
2024-04-17T17:58:01.442Z,98869.75
2024-04-17T18:00:33.429Z,98869.92
2024-04-17T18:03:06.460Z,98871.45
2024-04-17T18:05:38.472Z,98877.77
2024-04-17T18:08:10.369Z,98879.83
2024-04-17T18:10:42.972Z,98884.27
2024-04-17T18:13:14.442Z,98883.20
2024-04-17T18:15:56.487Z,98882.81
2024-04-17T18:18:29.206Z,98886.73
2024-04-17T18:21:09.278Z,98887.23
2024-04-17T18:23:42.286Z,98896.25
2024-04-17T18:26:17.575Z,98895.66
2024-04-17T18:28:51.190Z,98896.13
2024-04-17T18:31:23.920Z,98906.19
2024-04-17T18:33:55.732Z,98910.81
2024-04-17T18:36:30.311Z,98911.54
2024-04-17T18:39:02.294Z,98914.60
2024-04-17T18:41:36.084Z,98917.70
2024-04-17T18:44:10.983Z,98913.84
2024-04-17T18:46:42.798Z,98917.49
2024-04-17T18:49:14.533Z,98918.15
2024-04-17T18:51:46.155Z,98917.61
2024-04-17T18:54:17.932Z,98916.42
2024-04-17T18:56:49.665Z,98918.02
2024-04-17T18:59:21.920Z,98920.64
2024-04-17T19:01:54.968Z,98923.02
2024-04-17T19:04:26.762Z,98923.64
2024-04-17T19:06:58.404Z,98918.98
2024-04-17T19:09:30.018Z,98923.42
2024-04-17T19:12:01.511Z,98924.95
2024-04-17T19:14:33.194Z,98926.58
2024-04-17T19:17:06.708Z,98932.03
2024-04-17T19:19:39.034Z,98935.51
2024-04-17T19:22:10.653Z,98933.43
2024-04-17T19:24:42.226Z,98934.27
2024-04-17T19:27:13.997Z,98935.78
2024-04-17T19:29:54.082Z,98932.63
2024-04-17T19:32:33.632Z,98931.38
2024-04-17T19:35:05.945Z,98932.91
2024-04-17T19:37:42.434Z,98927.45
2024-04-17T19:40:14.992Z,98931.01
2024-04-17T19:42:54.026Z,98928.23
2024-04-17T19:45:30.188Z,98929.40
2024-04-17T19:48:02.077Z,98934.67
2024-04-17T19:50:33.576Z,98935.88
2024-04-17T19:53:05.450Z,98934.63
2024-04-17T19:55:40.741Z,98932.52
2024-04-17T19:58:12.440Z,98929.23
2024-04-17T20:00:44.472Z,98928.92
2024-04-17T20:03:16.361Z,98928.21
2024-04-17T20:05:55.530Z,98930.95
2024-04-17T20:08:27.456Z,98933.48
2024-04-17T20:10:59.848Z,98934.77
2024-04-17T20:13:32.102Z,98931.45
2024-04-17T20:16:05.114Z,98932.59
2024-04-17T20:18:38.185Z,98930.65
2024-04-17T20:21:11.521Z,98928.15
2024-04-17T20:23:44.098Z,98930.71
2024-04-17T20:26:16.481Z,98927.63
2024-04-17T20:28:57.151Z,98925.48
2024-04-17T20:31:32.869Z,98919.74
2024-04-17T20:34:04.554Z,98918.81
2024-04-17T20:36:36.230Z,98918.27
2024-04-17T20:39:08.094Z,98919.01
2024-04-17T20:41:39.672Z,98923.52
2024-04-17T20:44:11.136Z,98923.37
2024-04-17T20:46:42.791Z,98924.02
2024-04-17T20:49:14.442Z,98926.56
2024-04-17T20:51:46.133Z,98929.10
2024-04-17T20:54:17.960Z,98930.48
2024-04-17T20:56:49.774Z,98935.37
2024-04-17T20:59:21.506Z,98934.75
2024-04-17T21:01:53.310Z,98939.90
2024-04-17T21:04:24.978Z,98941.66
2024-04-17T21:06:57.009Z,98946.73
2024-04-17T21:09:28.775Z,98946.61
2024-04-17T21:12:00.292Z,98952.71
2024-04-17T21:14:32.110Z,98944.92
2024-04-17T21:17:04.250Z,98943.23
2024-04-17T21:19:35.723Z,98947.67
2024-04-17T21:22:07.639Z,98946.69
2024-04-17T21:24:39.471Z,98950.16
2024-04-17T21:27:11.186Z,98945.69
2024-04-17T21:29:42.971Z,98946.80
2024-04-17T21:32:14.560Z,98951.48
2024-04-17T21:34:46.312Z,98951.66
2024-04-17T21:37:19.312Z,98955.28
2024-04-17T21:39:54.856Z,98959.38
2024-04-17T21:42:26.573Z,98963.44
2024-04-17T21:44:58.338Z,98966.41
2024-04-17T21:47:30.319Z,98966.38
2024-04-17T21:50:02.268Z,98964.34
2024-04-17T21:52:33.952Z,98967.41
2024-04-17T21:55:05.790Z,98968.90
2024-04-17T21:57:38.149Z,98968.27
2024-04-17T22:00:11.819Z,98967.24
2024-04-17T22:02:43.428Z,98969.42
2024-04-17T22:05:15.228Z,98968.90
2024-04-17T22:07:47.039Z,98970.02
2024-04-17T22:10:18.786Z,98976.95
2024-04-17T22:12:50.428Z,98979.59
2024-04-17T22:15:21.965Z,98975.59
2024-04-17T22:17:53.571Z,98976.52
2024-04-17T22:20:25.288Z,98977.35
2024-04-17T22:22:56.909Z,98976.06
2024-04-17T22:25:28.519Z,98974.34
2024-04-17T22:28:00.365Z,98973.30
2024-04-17T22:30:32.128Z,98972.95
2024-04-17T22:33:04.142Z,98974.04
2024-04-17T22:35:37.484Z,98974.20
2024-04-17T22:38:09.023Z,98974.11
2024-04-17T22:40:40.618Z,98975.42
2024-04-17T22:43:12.281Z,98979.24
2024-04-17T22:45:44.027Z,98976.54
2024-04-17T22:48:15.708Z,98981.77
2024-04-17T22:50:47.443Z,98981.23
2024-04-17T22:53:19.203Z,98986.42
2024-04-17T22:55:50.791Z,98992.31
2024-04-17T22:58:22.320Z,98992.12
2024-04-17T23:00:53.872Z,98997.27
2024-04-17T23:03:25.882Z,98997.41
2024-04-17T23:05:57.595Z,98996.24
2024-04-17T23:08:29.168Z,98992.26
2024-04-17T23:11:01.244Z,98995.41
2024-04-17T23:13:33.387Z,98992.82
2024-04-17T23:16:05.041Z,98993.05
2024-04-17T23:18:36.500Z,98996.25
2024-04-17T23:21:08.062Z,98997.63
2024-04-17T23:23:39.724Z,98995.80
2024-04-17T23:26:11.336Z,98994.70
2024-04-17T23:28:47.874Z,98992.58
2024-04-17T23:31:19.487Z,98994.48
2024-04-17T23:33:51.211Z,98994.27
2024-04-17T23:36:23.352Z,98993.20
2024-04-17T23:38:54.974Z,98990.16
2024-04-17T23:41:26.562Z,98988.61
2024-04-17T23:43:58.254Z,98990.84
2024-04-17T23:46:29.840Z,98988.96
2024-04-17T23:49:01.324Z,98986.23
2024-04-17T23:51:33.277Z,98989.27
2024-04-17T23:54:04.921Z,98989.19
2024-04-17T23:56:36.629Z,98993.27
2024-04-17T23:59:08.404Z,98993.30
